sensor_id;sensor_type;location;lat;lon;timestamp;pressure;altitude;pressure_sealevel;temperature;humidity
7802;BME280;3945;48.952;9.506;2023-05-01T00:02:06;97893.16;;;11.86;70.30
7802;BME280;3945;48.952;9.506;2023-05-01T00:04:32;97895.47;;;11.78;70.55
7802;BME280;3945;48.952;9.506;2023-05-01T00:06:59;97885.28;;;11.74;70.37
7802;BME280;3945;48.952;9.506;2023-05-01T00:09:25;97886.56;;;11.72;70.52
7802;BME280;3945;48.952;9.506;2023-05-01T00:11:52;97892.94;;;11.71;70.39
7802;BME280;3945;48.952;9.506;2023-05-01T00:14:18;97883.34;;;11.70;70.37
7802;BME280;3945;48.952;9.506;2023-05-01T00:16:46;97879.56;;;11.66;71.09
7802;BME280;3945;48.952;9.506;2023-05-01T00:19:12;97884.91;;;11.66;70.56
7802;BME280;3945;48.952;9.506;2023-05-01T00:21:42;97874.97;;;11.61;71.13
7802;BME280;3945;48.952;9.506;2023-05-01T00:24:09;97880.81;;;11.58;71.18
7802;BME280;3945;48.952;9.506;2023-05-01T00:26:36;97872.00;;;11.58;70.86
7802;BME280;3945;48.952;9.506;2023-05-01T00:29:02;97870.41;;;11.57;70.67
7802;BME280;3945;48.952;9.506;2023-05-01T00:31:28;97865.06;;;11.57;70.79
7802;BME280;3945;48.952;9.506;2023-05-01T00:33:56;97866.13;;;11.56;70.51
7802;BME280;3945;48.952;9.506;2023-05-01T00:36:22;97863.22;;;11.57;70.63
7802;BME280;3945;48.952;9.506;2023-05-01T00:38:49;97857.63;;;11.59;70.34
7802;BME280;3945;48.952;9.506;2023-05-01T00:41:15;97861.63;;;11.61;70.21
7802;BME280;3945;48.952;9.506;2023-05-01T00:43:41;97854.69;;;11.60;70.38
7802;BME280;3945;48.952;9.506;2023-05-01T00:46:08;97857.88;;;11.57;70.13
7802;BME280;3945;48.952;9.506;2023-05-01T00:48:34;97857.06;;;11.57;70.36
7802;BME280;3945;48.952;9.506;2023-05-01T00:51:03;97855.44;;;11.56;70.61
7802;BME280;3945;48.952;9.506;2023-05-01T00:53:30;97855.94;;;11.53;70.70
7802;BME280;3945;48.952;9.506;2023-05-01T00:55:58;97846.28;;;11.47;70.80
7802;BME280;3945;48.952;9.506;2023-05-01T00:58:24;97841.22;;;11.45;71.53
7802;BME280;3945;48.952;9.506;2023-05-01T01:00:51;97835.81;;;11.40;71.27
7802;BME280;3945;48.952;9.506;2023-05-01T01:03:17;97841.09;;;11.35;71.46
7802;BME280;3945;48.952;9.506;2023-05-01T01:05:45;97834.13;;;11.34;71.83
7802;BME280;3945;48.952;9.506;2023-05-01T01:08:18;97829.06;;;11.32;71.19
7802;BME280;3945;48.952;9.506;2023-05-01T01:10:50;97837.38;;;11.36;70.56
7802;BME280;3945;48.952;9.506;2023-05-01T01:13:19;97827.28;;;11.38;70.68
7802;BME280;3945;48.952;9.506;2023-05-01T01:15:49;97822.19;;;11.37;70.75
7802;BME280;3945;48.952;9.506;2023-05-01T01:18:21;97827.53;;;11.37;70.54
7802;BME280;3945;48.952;9.506;2023-05-01T01:20:52;97824.03;;;11.36;70.84
7802;BME280;3945;48.952;9.506;2023-05-01T01:23:35;97817.34;;;11.33;70.62
7802;BME280;3945;48.952;9.506;2023-05-01T01:26:21;97817.84;;;11.30;70.55
7802;BME280;3945;48.952;9.506;2023-05-01T01:28:54;97822.06;;;11.26;71.39
7802;BME280;3945;48.952;9.506;2023-05-01T01:31:28;97817.25;;;11.23;71.38
7802;BME280;3945;48.952;9.506;2023-05-01T01:34:02;97818.00;;;11.24;70.58
7802;BME280;3945;48.952;9.506;2023-05-01T01:36:31;97822.00;;;11.21;71.29
7802;BME280;3945;48.952;9.506;2023-05-01T01:39:09;97819.34;;;11.21;71.29
7802;BME280;3945;48.952;9.506;2023-05-01T01:41:38;97819.00;;;11.18;71.14
7802;BME280;3945;48.952;9.506;2023-05-01T01:44:07;97814.25;;;11.20;71.48
7802;BME280;3945;48.952;9.506;2023-05-01T01:46:36;97809.16;;;11.18;70.59
7802;BME280;3945;48.952;9.506;2023-05-01T01:49:05;97814.72;;;11.17;71.29
7802;BME280;3945;48.952;9.506;2023-05-01T01:51:34;97813.94;;;11.16;71.31
7802;BME280;3945;48.952;9.506;2023-05-01T01:54:00;97808.06;;;11.14;71.18
7802;BME280;3945;48.952;9.506;2023-05-01T01:56:27;97803.22;;;11.11;70.89
7802;BME280;3945;48.952;9.506;2023-05-01T01:58:54;97804.59;;;11.14;70.84
7802;BME280;3945;48.952;9.506;2023-05-01T02:01:22;97813.63;;;11.13;71.49
7802;BME280;3945;48.952;9.506;2023-05-01T02:03:49;97801.59;;;11.10;71.01
7802;BME280;3945;48.952;9.506;2023-05-01T02:06:17;97797.88;;;11.11;71.25
7802;BME280;3945;48.952;9.506;2023-05-01T02:08:44;97796.53;;;11.09;70.84
7802;BME280;3945;48.952;9.506;2023-05-01T02:11:12;97796.59;;;11.14;70.51
7802;BME280;3945;48.952;9.506;2023-05-01T02:13:39;97797.66;;;11.13;70.32
7802;BME280;3945;48.952;9.506;2023-05-01T02:16:07;97793.38;;;11.12;70.66
7802;BME280;3945;48.952;9.506;2023-05-01T02:18:34;97784.56;;;11.11;70.75
7802;BME280;3945;48.952;9.506;2023-05-01T02:21:01;97787.22;;;11.11;70.79
7802;BME280;3945;48.952;9.506;2023-05-01T02:23:29;97782.97;;;11.10;70.98
7802;BME280;3945;48.952;9.506;2023-05-01T02:25:57;97786.38;;;11.06;71.46
7802;BME280;3945;48.952;9.506;2023-05-01T02:28:26;97782.03;;;11.00;71.80
7802;BME280;3945;48.952;9.506;2023-05-01T02:30:54;97786.00;;;10.97;71.91
7802;BME280;3945;48.952;9.506;2023-05-01T02:33:21;97781.72;;;10.96;71.55
7802;BME280;3945;48.952;9.506;2023-05-01T02:35:48;97783.84;;;10.94;71.79
7802;BME280;3945;48.952;9.506;2023-05-01T02:38:14;97781.66;;;10.91;71.74
7802;BME280;3945;48.952;9.506;2023-05-01T02:40:43;97782.94;;;10.88;72.08
7802;BME280;3945;48.952;9.506;2023-05-01T02:43:11;97768.75;;;10.83;72.82
7802;BME280;3945;48.952;9.506;2023-05-01T02:45:39;97779.66;;;10.81;73.23
7802;BME280;3945;48.952;9.506;2023-05-01T02:48:06;97766.03;;;10.78;73.56
7802;BME280;3945;48.952;9.506;2023-05-01T02:50:33;97766.28;;;10.76;73.52
7802;BME280;3945;48.952;9.506;2023-05-01T02:53:01;97768.06;;;10.71;74.04
7802;BME280;3945;48.952;9.506;2023-05-01T02:55:28;97760.81;;;10.66;74.24
7802;BME280;3945;48.952;9.506;2023-05-01T02:57:57;97762.94;;;10.64;74.25
7802;BME280;3945;48.952;9.506;2023-05-01T03:00:24;97756.22;;;10.62;74.61
7802;BME280;3945;48.952;9.506;2023-05-01T03:02:50;97753.28;;;10.58;74.37
7802;BME280;3945;48.952;9.506;2023-05-01T03:05:17;97756.16;;;10.56;74.89
7802;BME280;3945;48.952;9.506;2023-05-01T03:07:43;97747.63;;;10.54;74.85
7802;BME280;3945;48.952;9.506;2023-05-01T03:10:10;97750.03;;;10.56;74.10
7802;BME280;3945;48.952;9.506;2023-05-01T03:12:36;97745.19;;;10.53;74.68
7802;BME280;3945;48.952;9.506;2023-05-01T03:15:04;97753.75;;;10.55;73.98
7802;BME280;3945;48.952;9.506;2023-05-01T03:17:31;97752.38;;;10.52;74.42
7802;BME280;3945;48.952;9.506;2023-05-01T03:19:58;97750.50;;;10.53;74.36
7802;BME280;3945;48.952;9.506;2023-05-01T03:22:27;97747.03;;;10.52;74.15
7802;BME280;3945;48.952;9.506;2023-05-01T03:24:53;97740.38;;;10.50;74.24
7802;BME280;3945;48.952;9.506;2023-05-01T03:27:20;97744.09;;;10.49;73.97
7802;BME280;3945;48.952;9.506;2023-05-01T03:29:46;97747.31;;;10.51;74.10
7802;BME280;3945;48.952;9.506;2023-05-01T03:32:15;97744.88;;;10.49;74.14
7802;BME280;3945;48.952;9.506;2023-05-01T03:34:42;97744.66;;;10.51;74.12
7802;BME280;3945;48.952;9.506;2023-05-01T03:37:08;97741.19;;;10.50;74.30
7802;BME280;3945;48.952;9.506;2023-05-01T03:39:35;97752.06;;;10.49;73.78
7802;BME280;3945;48.952;9.506;2023-05-01T03:42:02;97739.56;;;10.49;74.19
7802;BME280;3945;48.952;9.506;2023-05-01T03:44:29;97742.22;;;10.49;74.31
7802;BME280;3945;48.952;9.506;2023-05-01T03:46:56;97737.38;;;10.46;74.25
7802;BME280;3945;48.952;9.506;2023-05-01T03:49:24;97739.00;;;10.47;74.56
7802;BME280;3945;48.952;9.506;2023-05-01T03:51:50;97730.22;;;10.47;74.42
7802;BME280;3945;48.952;9.506;2023-05-01T03:54:17;97733.69;;;10.47;73.86
7802;BME280;3945;48.952;9.506;2023-05-01T03:56:43;97732.41;;;10.50;73.91
7802;BME280;3945;48.952;9.506;2023-05-01T03:59:09;97731.88;;;10.53;73.52
7802;BME280;3945;48.952;9.506;2023-05-01T04:01:36;97724.72;;;10.53;73.29
7802;BME280;3945;48.952;9.506;2023-05-01T04:04:03;97734.31;;;10.54;73.42
7802;BME280;3945;48.952;9.506;2023-05-01T04:06:31;97730.84;;;10.54;73.21
7802;BME280;3945;48.952;9.506;2023-05-01T04:08:57;97727.94;;;10.55;73.56
7802;BME280;3945;48.952;9.506;2023-05-01T04:11:24;97736.16;;;10.54;73.74
7802;BME280;3945;48.952;9.506;2023-05-01T04:13:50;97727.38;;;10.53;73.66
7802;BME280;3945;48.952;9.506;2023-05-01T04:16:16;97730.59;;;10.55;73.35
7802;BME280;3945;48.952;9.506;2023-05-01T04:18:43;97730.84;;;10.54;73.85
7802;BME280;3945;48.952;9.506;2023-05-01T04:21:09;97733.84;;;10.57;73.23
7802;BME280;3945;48.952;9.506;2023-05-01T04:23:37;97726.34;;;10.54;73.48
7802;BME280;3945;48.952;9.506;2023-05-01T04:26:03;97727.38;;;10.53;73.31
7802;BME280;3945;48.952;9.506;2023-05-01T04:28:30;97725.75;;;10.52;73.18
7802;BME280;3945;48.952;9.506;2023-05-01T04:30:56;97724.19;;;10.51;73.62
7802;BME280;3945;48.952;9.506;2023-05-01T04:33:23;97721.81;;;10.55;73.64
7802;BME280;3945;48.952;9.506;2023-05-01T04:35:49;97716.72;;;10.53;73.37
7802;BME280;3945;48.952;9.506;2023-05-01T04:38:16;97712.72;;;10.51;73.38
7802;BME280;3945;48.952;9.506;2023-05-01T04:40:43;97715.94;;;10.53;73.59
7802;BME280;3945;48.952;9.506;2023-05-01T04:43:10;97721.19;;;10.48;73.42
7802;BME280;3945;48.952;9.506;2023-05-01T04:45:37;97716.44;;;10.50;73.42
7802;BME280;3945;48.952;9.506;2023-05-01T04:48:04;97719.63;;;10.52;72.46
7802;BME280;3945;48.952;9.506;2023-05-01T04:50:30;97724.72;;;10.53;73.20
7802;BME280;3945;48.952;9.506;2023-05-01T04:52:56;97714.31;;;10.52;72.90
7802;BME280;3945;48.952;9.506;2023-05-01T04:55:23;97722.84;;;10.54;73.11
7802;BME280;3945;48.952;9.506;2023-05-01T04:57:51;97723.44;;;10.56;72.59
7802;BME280;3945;48.952;9.506;2023-05-01T05:00:17;97734.88;;;10.56;72.38
7802;BME280;3945;48.952;9.506;2023-05-01T05:02:44;97733.03;;;10.57;72.56
7802;BME280;3945;48.952;9.506;2023-05-01T05:05:11;97728.50;;;10.57;72.47
7802;BME280;3945;48.952;9.506;2023-05-01T05:07:37;97729.63;;;10.62;72.83
7802;BME280;3945;48.952;9.506;2023-05-01T05:10:04;97723.72;;;10.60;72.26
7802;BME280;3945;48.952;9.506;2023-05-01T05:12:30;97723.50;;;10.61;72.51
7802;BME280;3945;48.952;9.506;2023-05-01T05:14:58;97729.63;;;10.62;72.49
7802;BME280;3945;48.952;9.506;2023-05-01T05:17:24;97730.19;;;10.64;72.68
7802;BME280;3945;48.952;9.506;2023-05-01T05:19:51;97732.03;;;10.63;72.85
7802;BME280;3945;48.952;9.506;2023-05-01T05:22:17;97735.75;;;10.62;72.88
7802;BME280;3945;48.952;9.506;2023-05-01T05:24:44;97734.94;;;10.62;73.08
7802;BME280;3945;48.952;9.506;2023-05-01T05:27:11;97729.13;;;10.65;72.66
7802;BME280;3945;48.952;9.506;2023-05-01T05:29:37;97734.47;;;10.65;73.20
7802;BME280;3945;48.952;9.506;2023-05-01T05:32:05;97733.16;;;10.67;72.96
7802;BME280;3945;48.952;9.506;2023-05-01T05:34:31;97734.75;;;10.68;72.96
7802;BME280;3945;48.952;9.506;2023-05-01T05:36:58;97732.44;;;10.72;73.10
7802;BME280;3945;48.952;9.506;2023-05-01T05:39:24;97722.88;;;10.76;72.04
7802;BME280;3945;48.952;9.506;2023-05-01T05:41:50;97729.59;;;10.78;72.07
7802;BME280;3945;48.952;9.506;2023-05-01T05:44:18;97726.13;;;10.78;71.72
7802;BME280;3945;48.952;9.506;2023-05-01T05:46:44;97725.59;;;10.81;72.24
7802;BME280;3945;48.952;9.506;2023-05-01T05:49:12;97727.50;;;10.80;71.60
7802;BME280;3945;48.952;9.506;2023-05-01T05:51:38;97723.28;;;10.84;72.11
7802;BME280;3945;48.952;9.506;2023-05-01T05:54:04;97717.47;;;10.87;71.55
7802;BME280;3945;48.952;9.506;2023-05-01T05:56:31;97716.94;;;10.90;72.31
7802;BME280;3945;48.952;9.506;2023-05-01T05:58:57;97715.34;;;10.89;71.75
7802;BME280;3945;48.952;9.506;2023-05-01T06:01:27;97723.69;;;10.98;71.88
7802;BME280;3945;48.952;9.506;2023-05-01T06:03:53;97720.00;;;10.99;71.70
7802;BME280;3945;48.952;9.506;2023-05-01T06:06:21;97712.88;;;11.05;72.56
7802;BME280;3945;48.952;9.506;2023-05-01T06:08:48;97722.22;;;11.07;71.62
7802;BME280;3945;48.952;9.506;2023-05-01T06:11:14;97720.41;;;11.13;71.77
7802;BME280;3945;48.952;9.506;2023-05-01T06:13:40;97720.97;;;11.15;71.97
7802;BME280;3945;48.952;9.506;2023-05-01T06:16:07;97727.66;;;11.17;71.41
7802;BME280;3945;48.952;9.506;2023-05-01T06:18:33;97721.59;;;11.22;71.61
7802;BME280;3945;48.952;9.506;2023-05-01T06:20:59;97725.66;;;11.29;71.95
7802;BME280;3945;48.952;9.506;2023-05-01T06:23:27;97728.38;;;11.34;71.91
7802;BME280;3945;48.952;9.506;2023-05-01T06:25:54;97724.94;;;11.39;72.01
7802;BME280;3945;48.952;9.506;2023-05-01T06:28:20;97726.06;;;11.43;71.55
7802;BME280;3945;48.952;9.506;2023-05-01T06:30:47;97724.03;;;11.50;71.12
7802;BME280;3945;48.952;9.506;2023-05-01T06:33:13;97731.22;;;11.50;70.71
7802;BME280;3945;48.952;9.506;2023-05-01T06:35:39;97723.25;;;11.55;70.32
7802;BME280;3945;48.952;9.506;2023-05-01T06:38:06;97734.75;;;11.60;72.37
7802;BME280;3945;48.952;9.506;2023-05-01T06:40:33;97730.31;;;11.66;73.20
7802;BME280;3945;48.952;9.506;2023-05-01T06:43:00;97731.13;;;11.66;72.01
7802;BME280;3945;48.952;9.506;2023-05-01T06:45:26;97734.03;;;11.65;71.11
7802;BME280;3945;48.952;9.506;2023-05-01T06:47:53;97739.13;;;11.66;70.75
7802;BME280;3945;48.952;9.506;2023-05-01T06:50:19;97736.72;;;11.70;70.56
7802;BME280;3945;48.952;9.506;2023-05-01T06:52:45;97740.19;;;11.70;70.42
7802;BME280;3945;48.952;9.506;2023-05-01T06:55:12;97739.16;;;11.71;70.05
7802;BME280;3945;48.952;9.506;2023-05-01T06:57:39;97740.44;;;11.69;69.06
7802;BME280;3945;48.952;9.506;2023-05-01T07:00:07;97744.47;;;11.71;68.88
7802;BME280;3945;48.952;9.506;2023-05-01T07:02:34;97743.22;;;11.74;70.63
7802;BME280;3945;48.952;9.506;2023-05-01T07:05:01;97747.78;;;11.79;70.17
7802;BME280;3945;48.952;9.506;2023-05-01T07:07:28;97747.56;;;11.85;71.89
7802;BME280;3945;48.952;9.506;2023-05-01T07:09:55;97752.19;;;11.95;70.88
7802;BME280;3945;48.952;9.506;2023-05-01T07:12:21;97752.78;;;12.02;71.50
7802;BME280;3945;48.952;9.506;2023-05-01T07:14:49;97757.91;;;12.08;71.58
7802;BME280;3945;48.952;9.506;2023-05-01T07:17:16;97752.91;;;12.17;71.62
7802;BME280;3945;48.952;9.506;2023-05-01T07:19:42;97757.22;;;12.23;71.20
7802;BME280;3945;48.952;9.506;2023-05-01T07:22:09;97755.97;;;12.31;70.63
7802;BME280;3945;48.952;9.506;2023-05-01T07:24:35;97755.72;;;12.37;71.00
7802;BME280;3945;48.952;9.506;2023-05-01T07:27:01;97757.38;;;12.43;70.79
7802;BME280;3945;48.952;9.506;2023-05-01T07:29:28;97757.66;;;12.47;69.85
7802;BME280;3945;48.952;9.506;2023-05-01T07:31:56;97758.50;;;12.52;69.82
7802;BME280;3945;48.952;9.506;2023-05-01T07:34:22;97758.53;;;12.58;70.85
7802;BME280;3945;48.952;9.506;2023-05-01T07:36:48;97760.41;;;12.62;70.86
7802;BME280;3945;48.952;9.506;2023-05-01T07:39:15;97754.03;;;12.68;71.61
7802;BME280;3945;48.952;9.506;2023-05-01T07:41:42;97764.25;;;12.76;72.69
7802;BME280;3945;48.952;9.506;2023-05-01T07:44:08;97757.84;;;12.82;72.45
7802;BME280;3945;48.952;9.506;2023-05-01T07:46:35;97749.34;;;12.90;70.97
7802;BME280;3945;48.952;9.506;2023-05-01T07:49:02;97755.56;;;12.96;71.51
7802;BME280;3945;48.952;9.506;2023-05-01T07:51:29;97751.03;;;13.02;71.20
7802;BME280;3945;48.952;9.506;2023-05-01T07:53:56;97756.13;;;13.03;70.20
7802;BME280;3945;48.952;9.506;2023-05-01T07:56:23;97756.63;;;13.05;70.40
7802;BME280;3945;48.952;9.506;2023-05-01T07:58:49;97747.34;;;13.13;69.78
7802;BME280;3945;48.952;9.506;2023-05-01T08:01:16;97755.41;;;13.18;67.94
7802;BME280;3945;48.952;9.506;2023-05-01T08:03:42;97753.81;;;13.17;66.88
7802;BME280;3945;48.952;9.506;2023-05-01T08:06:10;97757.53;;;13.16;65.89
7802;BME280;3945;48.952;9.506;2023-05-01T08:08:36;97755.41;;;13.18;66.27
7802;BME280;3945;48.952;9.506;2023-05-01T08:11:03;97763.13;;;13.14;66.50
7802;BME280;3945;48.952;9.506;2023-05-01T08:13:29;97751.59;;;13.04;66.16
7802;BME280;3945;48.952;9.506;2023-05-01T08:15:59;97757.19;;;13.07;66.41
7802;BME280;3945;48.952;9.506;2023-05-01T08:18:25;97756.94;;;13.09;66.07
7802;BME280;3945;48.952;9.506;2023-05-01T08:20:52;97756.69;;;13.10;67.40
7802;BME280;3945;48.952;9.506;2023-05-01T08:23:19;97754.06;;;13.15;67.12
7802;BME280;3945;48.952;9.506;2023-05-01T08:25:46;97759.88;;;13.12;67.15
7802;BME280;3945;48.952;9.506;2023-05-01T08:28:15;97753.16;;;13.05;66.39
7802;BME280;3945;48.952;9.506;2023-05-01T08:30:41;97756.88;;;12.99;67.13
7802;BME280;3945;48.952;9.506;2023-05-01T08:33:08;97753.16;;;13.00;67.57
7802;BME280;3945;48.952;9.506;2023-05-01T08:35:34;97754.50;;;13.02;66.74
7802;BME280;3945;48.952;9.506;2023-05-01T08:38:00;97749.72;;;13.09;67.48
7802;BME280;3945;48.952;9.506;2023-05-01T08:40:30;97742.06;;;13.18;67.63
7802;BME280;3945;48.952;9.506;2023-05-01T08:42:57;97743.97;;;13.33;67.75
7802;BME280;3945;48.952;9.506;2023-05-01T08:45:25;97739.44;;;13.43;69.32
7802;BME280;3945;48.952;9.506;2023-05-01T08:47:53;97740.00;;;13.55;69.02
7802;BME280;3945;48.952;9.506;2023-05-01T08:50:20;97743.50;;;13.66;66.30
7802;BME280;3945;48.952;9.506;2023-05-01T08:52:47;97735.22;;;13.73;66.78
7802;BME280;3945;48.952;9.506;2023-05-01T08:55:16;97738.72;;;13.78;68.73
7802;BME280;3945;48.952;9.506;2023-05-01T08:57:46;97741.94;;;13.85;68.39
7802;BME280;3945;48.952;9.506;2023-05-01T09:00:13;97745.69;;;13.89;65.99
7802;BME280;3945;48.952;9.506;2023-05-01T09:02:42;97739.00;;;13.87;66.38
7802;BME280;3945;48.952;9.506;2023-05-01T09:05:09;97738.72;;;13.88;65.48
7802;BME280;3945;48.952;9.506;2023-05-01T09:07:36;97738.44;;;13.85;65.28
7802;BME280;3945;48.952;9.506;2023-05-01T09:10:03;97736.31;;;13.87;65.40
7802;BME280;3945;48.952;9.506;2023-05-01T09:12:29;97746.75;;;13.88;65.85
7802;BME280;3945;48.952;9.506;2023-05-01T09:15:00;97744.88;;;13.89;64.25
7802;BME280;3945;48.952;9.506;2023-05-01T09:17:27;97745.94;;;13.93;64.32
7802;BME280;3945;48.952;9.506;2023-05-01T09:19:55;97741.41;;;13.93;64.65
7802;BME280;3945;48.952;9.506;2023-05-01T09:22:22;97743.00;;;13.94;64.71
7802;BME280;3945;48.952;9.506;2023-05-01T09:24:48;97743.28;;;13.98;64.87
7802;BME280;3945;48.952;9.506;2023-05-01T09:27:15;97750.50;;;14.13;66.95
7802;BME280;3945;48.952;9.506;2023-05-01T09:29:41;97747.03;;;14.22;65.48
7802;BME280;3945;48.952;9.506;2023-05-01T09:32:16;97747.56;;;14.29;65.01
7802;BME280;3945;48.952;9.506;2023-05-01T09:34:44;97749.69;;;14.37;66.88
7802;BME280;3945;48.952;9.506;2023-05-01T09:37:11;97752.41;;;14.42;65.54
7802;BME280;3945;48.952;9.506;2023-05-01T09:39:38;97755.84;;;14.48;64.88
7802;BME280;3945;48.952;9.506;2023-05-01T09:42:05;97755.59;;;14.60;66.36
7802;BME280;3945;48.952;9.506;2023-05-01T09:44:33;97757.97;;;14.76;64.42
7802;BME280;3945;48.952;9.506;2023-05-01T09:47:05;97750.69;;;14.92;65.25
7802;BME280;3945;48.952;9.506;2023-05-01T09:52:17;97751.66;;;15.21;65.40
7802;BME280;3945;48.952;9.506;2023-05-01T09:54:44;97757.22;;;15.35;63.89
7802;BME280;3945;48.952;9.506;2023-05-01T09:57:10;97753.69;;;15.55;65.14
7802;BME280;3945;48.952;9.506;2023-05-01T09:59:37;97749.56;;;15.68;63.91
7802;BME280;3945;48.952;9.506;2023-05-01T10:02:04;97746.00;;;15.82;62.25
7802;BME280;3945;48.952;9.506;2023-05-01T10:04:30;97746.72;;;15.93;60.46
7802;BME280;3945;48.952;9.506;2023-05-01T10:06:57;97743.41;;;16.06;63.93
7802;BME280;3945;48.952;9.506;2023-05-01T10:09:28;97734.34;;;16.31;63.85
7802;BME280;3945;48.952;9.506;2023-05-01T10:11:54;97736.56;;;16.53;61.54
7802;BME280;3945;48.952;9.506;2023-05-01T10:14:21;97733.22;;;16.66;63.39
7802;BME280;3945;48.952;9.506;2023-05-01T10:16:49;97733.13;;;16.76;60.53
7802;BME280;3945;48.952;9.506;2023-05-01T10:19:17;97734.91;;;16.57;59.45
7802;BME280;3945;48.952;9.506;2023-05-01T10:21:43;97739.75;;;16.55;59.35
7802;BME280;3945;48.952;9.506;2023-05-01T10:24:09;97741.34;;;16.61;62.38
7802;BME280;3945;48.952;9.506;2023-05-01T10:26:37;97739.94;;;16.68;59.68
7802;BME280;3945;48.952;9.506;2023-05-01T10:29:04;97732.78;;;16.83;59.02
7802;BME280;3945;48.952;9.506;2023-05-01T10:31:30;97734.56;;;16.92;59.17
7802;BME280;3945;48.952;9.506;2023-05-01T10:33:57;97732.78;;;17.06;58.58
7802;BME280;3945;48.952;9.506;2023-05-01T10:36:25;97735.97;;;17.32;57.66
7802;BME280;3945;48.952;9.506;2023-05-01T10:38:52;97733.00;;;17.52;59.34
7802;BME280;3945;48.952;9.506;2023-05-01T10:46:43;97732.88;;;18.00;55.61
7802;BME280;3945;48.952;9.506;2023-05-01T10:49:10;97727.53;;;18.14;54.98
7802;BME280;3945;48.952;9.506;2023-05-01T10:51:38;97723.81;;;18.10;56.67
7802;BME280;3945;48.952;9.506;2023-05-01T10:54:23;97723.06;;;18.23;58.51
7802;BME280;3945;48.952;9.506;2023-05-01T10:56:50;97729.09;;;18.33;56.09
7802;BME280;3945;48.952;9.506;2023-05-01T10:59:19;97723.59;;;18.39;57.57
7802;BME280;3945;48.952;9.506;2023-05-01T11:01:47;97730.63;;;18.53;55.12
7802;BME280;3945;48.952;9.506;2023-05-01T11:04:44;97727.28;;;18.61;56.71
7802;BME280;3945;48.952;9.506;2023-05-01T11:07:12;97727.50;;;18.65;57.17
7802;BME280;3945;48.952;9.506;2023-05-01T11:09:40;97723.88;;;18.56;55.09
7802;BME280;3945;48.952;9.506;2023-05-01T11:12:06;97722.00;;;18.56;56.23
7802;BME280;3945;48.952;9.506;2023-05-01T11:20:03;97716.84;;;18.55;56.48
7802;BME280;3945;48.952;9.506;2023-05-01T11:22:30;97716.00;;;18.59;56.16
7802;BME280;3945;48.952;9.506;2023-05-01T11:24:56;97722.91;;;18.65;54.57
7802;BME280;3945;48.952;9.506;2023-05-01T11:27:23;97707.13;;;18.73;55.50
7802;BME280;3945;48.952;9.506;2023-05-01T11:29:49;97706.75;;;18.79;58.04
7802;BME280;3945;48.952;9.506;2023-05-01T11:32:21;97702.22;;;18.88;55.62
7802;BME280;3945;48.952;9.506;2023-05-01T11:34:48;97703.66;;;18.86;55.35
7802;BME280;3945;48.952;9.506;2023-05-01T11:37:17;97703.13;;;18.97;54.28
7802;BME280;3945;48.952;9.506;2023-05-01T11:39:50;97700.94;;;18.99;52.47
7802;BME280;3945;48.952;9.506;2023-05-01T11:42:19;97694.84;;;19.07;52.80
7802;BME280;3945;48.952;9.506;2023-05-01T11:47:30;97696.84;;;18.88;53.83
7802;BME280;3945;48.952;9.506;2023-05-01T11:49:57;97690.97;;;18.86;54.74
7802;BME280;3945;48.952;9.506;2023-05-01T11:52:24;97701.13;;;18.76;52.49
7802;BME280;3945;48.952;9.506;2023-05-01T11:54:51;97690.75;;;18.69;56.26
7802;BME280;3945;48.952;9.506;2023-05-01T11:57:17;97690.44;;;18.70;54.80
7802;BME280;3945;48.952;9.506;2023-05-01T11:59:45;97688.16;;;18.64;53.41
7802;BME280;3945;48.952;9.506;2023-05-01T12:02:16;97686.69;;;18.53;53.87
7802;BME280;3945;48.952;9.506;2023-05-01T12:04:43;97687.78;;;18.52;55.59
7802;BME280;3945;48.952;9.506;2023-05-01T12:07:18;97687.09;;;18.46;54.90
7802;BME280;3945;48.952;9.506;2023-05-01T12:09:46;97700.78;;;18.50;54.98
7802;BME280;3945;48.952;9.506;2023-05-01T12:12:12;97693.13;;;18.57;57.65
7802;BME280;3945;48.952;9.506;2023-05-01T12:14:39;97686.97;;;18.70;56.48
7802;BME280;3945;48.952;9.506;2023-05-01T12:17:05;97688.34;;;18.81;55.61
7802;BME280;3945;48.952;9.506;2023-05-01T12:19:33;97683.28;;;18.93;55.60
7802;BME280;3945;48.952;9.506;2023-05-01T12:22:06;97686.44;;;18.95;54.39
7802;BME280;3945;48.952;9.506;2023-05-01T12:24:32;97686.66;;;18.99;54.23
7802;BME280;3945;48.952;9.506;2023-05-01T12:27:00;97690.53;;;19.06;52.82
7802;BME280;3945;48.952;9.506;2023-05-01T12:29:37;97688.25;;;19.00;53.26
7802;BME280;3945;48.952;9.506;2023-05-01T12:32:04;97690.16;;;18.86;53.33
7802;BME280;3945;48.952;9.506;2023-05-01T12:34:31;97684.16;;;18.89;55.12
7802;BME280;3945;48.952;9.506;2023-05-01T12:36:57;97681.56;;;18.97;55.65
7802;BME280;3945;48.952;9.506;2023-05-01T12:39:24;97689.66;;;18.97;53.13
7802;BME280;3945;48.952;9.506;2023-05-01T12:41:50;97688.44;;;19.03;54.18
7802;BME280;3945;48.952;9.506;2023-05-01T12:44:20;97682.75;;;19.05;51.63
7802;BME280;3945;48.952;9.506;2023-05-01T12:46:54;97685.34;;;19.10;53.24
7802;BME280;3945;48.952;9.506;2023-05-01T12:49:21;97681.94;;;19.18;52.50
7802;BME280;3945;48.952;9.506;2023-05-01T12:51:47;97683.91;;;19.26;51.72
7802;BME280;3945;48.952;9.506;2023-05-01T12:54:17;97678.91;;;19.33;52.72
7802;BME280;3945;48.952;9.506;2023-05-01T12:56:44;97677.81;;;19.48;53.28
7802;BME280;3945;48.952;9.506;2023-05-01T12:59:19;97679.50;;;19.58;51.19
7802;BME280;3945;48.952;9.506;2023-05-01T13:01:46;97673.47;;;19.61;50.99
7802;BME280;3945;48.952;9.506;2023-05-01T13:04:18;97666.09;;;19.53;48.86
7802;BME280;3945;48.952;9.506;2023-05-01T13:06:45;97673.88;;;19.54;50.60
7802;BME280;3945;48.952;9.506;2023-05-01T13:09:11;97662.00;;;19.55;50.87
7802;BME280;3945;48.952;9.506;2023-05-01T13:11:39;97663.47;;;19.61;52.88
7802;BME280;3945;48.952;9.506;2023-05-01T13:14:06;97661.25;;;19.63;51.41
7802;BME280;3945;48.952;9.506;2023-05-01T13:16:34;97660.97;;;19.65;51.19
7802;BME280;3945;48.952;9.506;2023-05-01T13:19:08;97666.78;;;19.58;51.23
7802;BME280;3945;48.952;9.506;2023-05-01T13:21:35;97666.59;;;19.55;49.26
7802;BME280;3945;48.952;9.506;2023-05-01T13:24:01;97657.25;;;19.61;48.56
7802;BME280;3945;48.952;9.506;2023-05-01T13:26:28;97658.44;;;19.68;49.63
7802;BME280;3945;48.952;9.506;2023-05-01T13:28:55;97659.38;;;19.64;49.49
7802;BME280;3945;48.952;9.506;2023-05-01T13:31:23;97657.09;;;19.43;52.01
7802;BME280;3945;48.952;9.506;2023-05-01T13:33:52;97659.22;;;19.33;52.65
7802;BME280;3945;48.952;9.506;2023-05-01T13:36:19;97654.34;;;19.21;49.46
7802;BME280;3945;48.952;9.506;2023-05-01T13:38:46;97660.16;;;19.15;50.39
7802;BME280;3945;48.952;9.506;2023-05-01T13:41:15;97664.66;;;19.05;50.71